Time;durP1;ratioP1;P1;durP2;ratioP2;P2;SDS_P1;SDS_P2;PMS_P1;PMS_P2;Temp;Humidity;BMP_temperature;BMP_pressure;BME280_temperature;BME280_humidity;BME280_pressure;Samples;Min_cycle;Max_cycle;Signal;HPM_P1;HPM_P2
2022/04/03 00:00:06;;;;;;;16.70;6.50;;;;;;;-1.65;77.18;98004.41;108074;1279;22571;-81
2022/04/03 00:02:33;;;;;;;17.00;6.30;;;;;;;-1.62;77.58;98002.81;108034;1277;25383;-75
2022/04/03 00:05:00;;;;;;;14.30;6.20;;;;;;;-1.66;77.19;98010.41;108024;1277;22529;-80
2022/04/03 00:07:27;;;;;;;15.10;6.30;;;;;;;-1.69;77.01;98010.52;108004;1277;25392;-75
2022/04/03 00:09:55;;;;;;;15.10;6.30;;;;;;;-1.71;76.78;98012.08;108034;1277;22537;-81
2022/04/03 00:12:23;;;;;;;12.60;6.60;;;;;;;-1.73;76.55;98016.94;108048;1277;24361;-77
2022/04/03 00:14:51;;;;;;;18.00;6.60;;;;;;;-1.78;76.60;98018.06;108023;1277;24311;-78
2022/04/03 00:17:18;;;;;;;14.60;6.20;;;;;;;-1.79;76.51;98019.13;108009;1277;22581;-79
2022/04/03 00:19:45;;;;;;;15.60;6.30;;;;;;;-1.82;76.49;98023.98;108022;1275;22544;-78
2022/04/03 00:22:12;;;;;;;13.00;5.60;;;;;;;-1.85;76.27;98022.52;108037;1277;22549;-81
2022/04/03 00:24:39;;;;;;;15.20;7.00;;;;;;;-1.84;76.45;98024.37;108037;1277;22656;-75
2022/04/03 00:27:07;;;;;;;17.30;7.40;;;;;;;-1.81;76.63;98025.85;108037;1277;24380;-77
2022/04/03 00:29:35;;;;;;;15.20;7.20;;;;;;;-1.79;76.91;98029.36;108111;1277;22538;-86
2022/04/03 00:32:02;;;;;;;20.40;6.80;;;;;;;-1.76;77.53;98036.27;108037;1277;22558;-76
2022/04/03 00:34:30;;;;;;;13.60;5.90;;;;;;;-1.79;77.41;98032.10;107997;1277;22548;-78
2022/04/03 00:36:57;;;;;;;12.60;4.90;;;;;;;-1.80;77.34;98034.68;108046;1277;22625;-76
2022/04/03 00:39:24;;;;;;;15.20;6.10;;;;;;;-1.78;76.84;98035.83;108009;1277;23164;-82
2022/04/03 00:41:52;;;;;;;15.80;6.20;;;;;;;-1.83;76.36;98037.66;107989;1277;22540;-80
2022/04/03 00:44:19;;;;;;;12.20;5.20;;;;;;;-1.85;76.25;98033.09;108025;1277;22556;-78
2022/04/03 00:46:47;;;;;;;12.30;5.60;;;;;;;-1.87;76.27;98034.70;108040;1277;22822;-80
2022/04/03 00:49:14;;;;;;;13.10;6.00;;;;;;;-1.87;76.58;98039.81;108035;1277;22544;-75
2022/04/03 00:51:41;;;;;;;13.30;5.90;;;;;;;-1.93;77.02;98037.73;108237;1277;24473;-80
2022/04/03 00:54:08;;;;;;;15.10;6.30;;;;;;;-1.96;77.28;98031.33;108011;1277;22550;-75
2022/04/03 00:56:36;;;;;;;16.10;6.40;;;;;;;-1.97;77.03;98034.60;108030;1277;22551;-81
2022/04/03 00:59:03;;;;;;;10.00;5.00;;;;;;;-1.97;76.88;98033.56;108022;1278;22544;-79
2022/04/03 01:01:30;;;;;;;14.30;5.70;;;;;;;-2.02;76.63;98038.80;108032;1277;22546;-82
2022/04/03 01:03:59;;;;;;;11.70;6.10;;;;;;;-2.05;76.60;98041.60;108048;1277;22556;-75
2022/04/03 01:06:26;;;;;;;13.80;6.30;;;;;;;-2.08;76.57;98043.39;108038;1277;22560;-82
2022/04/03 01:08:53;;;;;;;14.20;5.60;;;;;;;-2.10;76.65;98046.86;108053;1277;24827;-75
2022/04/03 01:11:23;;;;;;;14.30;7.40;;;;;;;-2.11;76.44;98047.73;108055;1277;22562;-75
2022/04/03 01:13:51;;;;;;;19.60;7.60;;;;;;;-2.08;76.70;98048.00;108036;1275;22557;-83
2022/04/03 01:16:19;;;;;;;12.10;6.40;;;;;;;-2.03;77.05;98047.72;108026;1277;22615;-80
2022/04/03 01:18:47;;;;;;;11.50;6.20;;;;;;;-2.02;77.45;98043.93;107993;1277;22557;-78
2022/04/03 01:21:14;;;;;;;12.00;5.50;;;;;;;-2.03;77.70;98051.96;108197;1277;22551;-79
2022/04/03 01:23:41;;;;;;;12.50;6.20;;;;;;;-2.04;77.47;98051.98;108042;1278;22554;-79
2022/04/03 01:26:08;;;;;;;12.90;5.00;;;;;;;-2.04;77.06;98054.55;108123;1277;22531;-79
2022/04/03 01:28:35;;;;;;;15.00;5.80;;;;;;;-2.07;76.80;98053.26;108060;1277;22579;-75
2022/04/03 01:31:03;;;;;;;12.10;5.50;;;;;;;-2.08;76.92;98054.48;108032;1277;26378;-82
2022/04/03 01:33:30;;;;;;;10.50;5.40;;;;;;;-2.10;76.47;98057.79;108041;1277;22528;-76
2022/04/03 01:35:57;;;;;;;14.20;4.80;;;;;;;-2.11;76.50;98056.61;108062;1277;22537;-87
2022/04/03 01:38:24;;;;;;;11.00;5.70;;;;;;;-2.14;76.33;98060.26;108057;1277;23661;-82
2022/04/03 01:40:51;;;;;;;10.90;5.60;;;;;;;-2.18;76.42;98067.86;108020;1277;22535;-75
2022/04/03 01:43:18;;;;;;;15.70;6.00;;;;;;;-2.15;76.49;98069.14;108031;1277;22556;-75
2022/04/03 01:45:45;;;;;;;12.20;5.20;;;;;;;-2.10;76.93;98070.05;108023;1277;22587;-80
2022/04/03 01:48:12;;;;;;;9.80;4.50;;;;;;;-2.12;77.27;98073.52;108065;1277;22543;-84
2022/04/03 01:50:39;;;;;;;9.10;3.60;;;;;;;-2.17;77.38;98077.73;108058;1277;22702;-75
2022/04/03 01:53:06;;;;;;;10.40;4.20;;;;;;;-2.22;76.94;98079.89;108012;1277;22556;-81
2022/04/03 01:55:33;;;;;;;9.60;4.10;;;;;;;-2.29;76.85;98080.89;108027;1277;22574;-80
2022/04/03 01:58:06;;;;;;;11.90;4.50;;;;;;;-2.34;76.77;98077.59;107797;1276;295488;-79
2022/04/03 02:00:34;;;;;;;;;;;;;;;-2.35;76.58;98081.90;108052;1278;22536;-78
2022/04/03 02:03:01;;;;;;;13.10;4.90;;;;;;;-2.40;76.67;98084.73;108061;1278;22878;-76
2022/04/03 02:05:28;;;;;;;12.80;5.10;;;;;;;-2.43;76.45;98082.95;108012;1278;22531;-78
2022/04/03 02:07:55;;;;;;;14.30;5.50;;;;;;;-2.45;76.41;98083.48;108018;1277;22726;-82
2022/04/03 02:10:22;;;;;;;13.10;5.10;;;;;;;-2.40;76.49;98089.67;108045;1278;25380;-82
2022/04/03 02:12:49;;;;;;;9.30;4.50;;;;;;;-2.39;76.52;98089.31;108067;1278;22532;-76
2022/04/03 02:15:16;;;;;;;12.90;4.30;;;;;;;-2.40;77.19;98094.44;108073;1278;25297;-76
2022/04/03 02:17:43;;;;;;;14.60;4.80;;;;;;;-2.40;77.34;98092.40;107999;1277;22557;-78
2022/04/03 02:20:10;;;;;;;10.80;4.40;;;;;;;-2.42;77.22;98098.11;108003;1278;22549;-84
2022/04/03 02:22:37;;;;;;;12.50;4.50;;;;;;;-2.45;76.93;98101.39;108048;1277;22606;-77
2022/04/03 02:25:09;;;;;;;14.10;4.40;;;;;;;-2.45;76.81;98102.41;108050;1277;22555;-77
2022/04/03 02:27:38;;;;;;;9.20;3.90;;;;;;;-2.45;76.43;98105.48;108093;1278;22553;-80
2022/04/03 02:30:11;;;;;;;12.10;4.00;;;;;;;-2.51;76.43;98103.21;108000;1278;22562;-82
2022/04/03 02:32:38;;;;;;;10.00;2.90;;;;;;;-2.54;76.63;98101.23;108069;1278;22808;-74
2022/04/03 02:35:07;;;;;;;13.50;4.40;;;;;;;-2.55;76.49;98103.99;108118;1278;22564;-82
2022/04/03 02:37:35;;;;;;;12.50;4.30;;;;;;;-2.55;76.78;98108.08;108102;1278;22550;-83
2022/04/03 02:40:04;;;;;;;9.40;3.80;;;;;;;-2.52;77.40;98104.43;108079;1277;22557;-81
2022/04/03 02:42:32;;;;;;;10.60;4.20;;;;;;;-2.50;77.36;98104.73;108030;1277;22556;-85
2022/04/03 02:44:59;;;;;;;12.40;4.30;;;;;;;-2.55;77.61;98109.27;108027;1278;22543;-80
2022/04/03 02:47:26;;;;;;;13.00;4.30;;;;;;;-2.57;77.21;98109.33;107993;1277;24343;-77
2022/04/03 02:49:53;;;;;;;14.50;4.70;;;;;;;-2.64;76.87;98109.80;108036;1278;22575;-74
2022/04/03 02:52:21;;;;;;;20.80;5.70;;;;;;;-2.64;76.80;98112.36;108014;1278;22608;-75
2022/04/03 02:54:48;;;;;;;12.00;4.60;;;;;;;-2.68;76.54;98117.04;108014;1277;22541;-75
2022/04/03 02:57:16;;;;;;;14.70;4.40;;;;;;;-2.71;76.41;98116.92;108034;1277;22551;-80
2022/04/03 02:59:44;;;;;;;10.40;4.10;;;;;;;-2.72;76.30;98119.35;108098;1277;25362;-80
2022/04/03 03:02:12;;;;;;;12.40;4.60;;;;;;;-2.75;76.46;98121.60;108068;1277;22543;-78
2022/04/03 03:04:39;;;;;;;11.50;4.50;;;;;;;-2.70;76.52;98122.20;108090;1277;22534;-86
2022/04/03 03:07:07;;;;;;;13.40;3.60;;;;;;;-2.67;76.94;98124.16;108039;1279;22552;-74
2022/04/03 03:09:34;;;;;;;12.90;3.60;;;;;;;-2.66;77.38;98125.35;108025;1279;22580;-88
2022/04/03 03:12:02;;;;;;;11.10;3.20;;;;;;;-2.68;77.38;98128.27;108005;1279;25459;-86
2022/04/03 03:14:29;;;;;;;11.60;4.00;;;;;;;-2.74;76.96;98126.53;108007;1276;22632;-75
2022/04/03 03:16:56;;;;;;;10.20;3.50;;;;;;;-2.77;76.94;98125.56;108025;1278;22593;-76
2022/04/03 03:19:23;;;;;;;10.10;4.40;;;;;;;-2.79;76.74;98129.89;108019;1279;22557;-80
2022/04/03 03:21:50;;;;;;;8.80;3.00;;;;;;;-2.77;76.59;98127.97;108035;1277;23184;-77
2022/04/03 03:24:17;;;;;;;10.70;3.70;;;;;;;-2.78;76.07;98131.38;108018;1278;22537;-76
2022/04/03 03:26:44;;;;;;;9.50;3.70;;;;;;;-2.84;76.35;98134.06;108029;1278;22551;-74
2022/04/03 03:29:11;;;;;;;11.00;4.40;;;;;;;-2.86;76.50;98129.17;108028;1279;22596;-74
2022/04/03 03:31:38;;;;;;;9.40;3.80;;;;;;;-2.86;76.27;98134.13;108014;1278;23112;-74
2022/04/03 03:34:05;;;;;;;14.70;4.40;;;;;;;-2.84;76.26;98134.58;108017;1278;22570;-74
2022/04/03 03:36:32;;;;;;;16.00;3.90;;;;;;;-2.82;76.80;98136.75;108066;1277;22541;-84
2022/04/03 03:38:59;;;;;;;11.60;3.70;;;;;;;-2.82;77.38;98140.16;108026;1278;22553;-80
2022/04/03 03:41:26;;;;;;;23.90;5.30;;;;;;;-2.83;77.45;98142.73;108034;1278;22555;-80
2022/04/03 03:43:53;;;;;;;19.60;4.50;;;;;;;-2.85;77.39;98143.95;108022;1278;22530;-82
2022/04/03 03:46:20;;;;;;;10.80;3.00;;;;;;;-2.83;77.05;98151.27;108025;1277;22535;-84
2022/04/03 03:48:47;;;;;;;9.00;3.30;;;;;;;-2.84;76.73;98159.45;108033;1278;22599;-85
2022/04/03 03:51:14;;;;;;;11.50;3.60;;;;;;;-2.85;76.58;98162.38;107982;1278;22528;-74
2022/04/03 03:53:41;;;;;;;9.00;3.30;;;;;;;-2.89;76.50;98165.52;108016;1278;24287;-76
2022/04/03 03:56:08;;;;;;;7.60;3.30;;;;;;;-2.90;76.41;98163.67;108046;1278;22566;-78
2022/04/03 03:58:35;;;;;;;7.80;3.10;;;;;;;-2.91;76.24;98167.09;107998;1278;22553;-78
2022/04/03 04:01:03;;;;;;;11.00;4.30;;;;;;;-2.93;76.40;98170.19;108026;1278;25312;-81
2022/04/03 04:03:30;;;;;;;10.80;4.40;;;;;;;-2.90;76.46;98173.04;108005;1277;22551;-78
2022/04/03 04:05:57;;;;;;;15.00;3.80;;;;;;;-2.86;76.90;98179.42;108055;1278;22592;-79
2022/04/03 04:08:24;;;;;;;8.00;3.40;;;;;;;-2.85;77.39;98179.41;108039;1278;22580;-78
2022/04/03 04:10:51;;;;;;;10.30;3.60;;;;;;;-2.88;77.51;98178.64;108013;1277;22566;-82
2022/04/03 04:13:18;;;;;;;9.50;3.80;;;;;;;-2.93;77.33;98181.78;107997;1278;22546;-78
2022/04/03 04:15:45;;;;;;;8.20;3.60;;;;;;;-2.96;76.96;98189.16;108050;1278;22537;-81
2022/04/03 04:18:12;;;;;;;7.00;3.80;;;;;;;-3.00;76.85;98193.66;108013;1278;24381;-76
2022/04/03 04:20:39;;;;;;;7.10;3.00;;;;;;;-3.00;76.74;98197.92;108008;1279;22556;-82
2022/04/03 04:23:06;;;;;;;9.60;3.50;;;;;;;-3.01;76.29;98200.32;108022;1279;25248;-83
2022/04/03 04:25:33;;;;;;;10.80;4.80;;;;;;;-3.04;76.47;98198.49;108041;1278;25606;-86
2022/04/03 04:28:00;;;;;;;12.60;5.00;;;;;;;-2.99;76.50;98205.58;108019;1278;22544;-86
2022/04/03 04:30:27;;;;;;;13.40;5.40;;;;;;;-2.99;76.74;98208.48;108021;1278;22537;-81
2022/04/03 04:32:54;;;;;;;15.10;5.20;;;;;;;-2.98;77.21;98208.30;108033;1278;22531;-78
2022/04/03 04:35:21;;;;;;;14.60;6.30;;;;;;;-3.00;77.59;98210.20;108017;1278;25520;-74
2022/04/03 04:37:50;;;;;;;14.20;4.80;;;;;;;-2.99;77.27;98209.67;108069;1278;24294;-83
2022/04/03 04:40:17;;;;;;;9.90;3.90;;;;;;;-3.00;76.94;98211.56;108073;1278;23710;-80
2022/04/03 04:42:44;;;;;;;11.00;3.90;;;;;;;-3.04;76.53;98215.36;108197;1277;24248;-84
2022/04/03 04:45:14;;;;;;;8.00;3.10;;;;;;;-3.06;76.49;98220.03;108268;1277;24236;-84
2022/04/03 04:47:42;;;;;;;8.70;3.50;;;;;;;-3.07;76.24;98222.42;108044;1278;22551;-80
2022/04/03 04:50:12;;;;;;;10.20;3.70;;;;;;;-3.07;76.16;98225.98;108006;1277;22536;-82
2022/04/03 04:52:39;;;;;;;7.60;3.70;;;;;;;-3.12;76.15;98228.30;108007;1278;22534;-81
2022/04/03 04:55:08;;;;;;;11.40;4.20;;;;;;;-3.14;76.25;98234.63;108144;1277;22541;-78
2022/04/03 04:57:37;;;;;;;11.60;4.70;;;;;;;-3.09;76.55;98239.14;108074;1277;22592;-80
2022/04/03 05:00:07;;;;;;;9.10;4.20;;;;;;;-3.04;76.81;98238.71;108015;1278;25237;-81
2022/04/03 05:02:34;;;;;;;6.90;3.50;;;;;;;-2.98;77.42;98244.41;107971;1278;22536;-77
2022/04/03 05:05:04;;;;;;;8.70;4.10;;;;;;;-2.94;77.55;98247.57;108012;1278;22544;-82
2022/04/03 05:07:33;;;;;;;8.20;4.20;;;;;;;-2.91;77.37;98249.39;108038;1278;22559;-79
2022/04/03 05:10:01;;;;;;;8.00;3.80;;;;;;;-2.90;77.09;98245.96;108061;1277;22532;-75
2022/04/03 05:12:28;;;;;;;10.30;3.90;;;;;;;-2.86;76.83;98251.01;108073;1278;22534;-77
2022/04/03 05:14:57;;;;;;;10.70;4.20;;;;;;;-2.84;76.74;98255.06;108013;1278;22534;-79
2022/04/03 05:17:26;;;;;;;12.50;4.70;;;;;;;-2.81;76.57;98255.18;108019;1278;22586;-74
2022/04/03 05:19:54;;;;;;;9.60;4.10;;;;;;;-2.79;76.27;98261.46;108057;1279;22580;-75
2022/04/03 05:22:23;;;;;;;11.10;4.80;;;;;;;-2.76;76.35;98263.27;108085;1277;22565;-75
2022/04/03 05:24:50;;;;;;;8.90;4.00;;;;;;;-2.69;76.33;98270.64;108067;1278;22527;-78
2022/04/03 05:27:18;;;;;;;12.90;6.10;;;;;;;-2.66;76.89;98268.88;108070;1278;22586;-79
2022/04/03 05:29:46;;;;;;;13.80;4.30;;;;;;;-2.60;77.55;98275.60;108025;1278;22565;-79
2022/04/03 05:32:14;;;;;;;11.70;5.10;;;;;;;-2.62;77.28;98277.01;108022;1278;22567;-80
2022/04/03 05:34:40;;;;;;;12.40;5.50;;;;;;;-2.62;76.93;98280.42;107992;1279;22563;-82
2022/04/03 05:37:07;;;;;;;12.80;4.40;;;;;;;-2.65;76.66;98283.52;108041;1278;22635;-78
2022/04/03 05:39:34;;;;;;;9.30;3.60;;;;;;;-2.63;76.47;98284.35;108044;1277;22533;-76
2022/04/03 05:42:02;;;;;;;9.30;3.60;;;;;;;-2.61;76.23;98284.16;108047;1277;22551;-75
2022/04/03 05:44:29;;;;;;;10.80;4.80;;;;;;;-2.58;76.19;98286.80;108070;1278;22541;-80
2022/04/03 05:46:56;;;;;;;9.70;4.20;;;;;;;-2.59;76.04;98289.39;108037;1278;22536;-82
2022/04/03 05:49:23;;;;;;;12.70;4.50;;;;;;;-2.58;76.09;98295.85;108063;1278;24302;-76
2022/04/03 05:51:51;;;;;;;10.40;4.90;;;;;;;-2.47;76.25;98300.95;108061;1277;22573;-75
2022/04/03 05:54:18;;;;;;;10.40;4.70;;;;;;;-2.40;76.52;98301.80;108012;1278;22575;-75
2022/04/03 05:56:46;;;;;;;13.10;5.40;;;;;;;-2.34;77.06;98304.61;108032;1277;23220;-75
2022/04/03 05:59:14;;;;;;;11.20;4.50;;;;;;;-2.34;77.11;98308.03;108023;1278;22586;-78
2022/04/03 06:01:41;;;;;;;10.60;4.90;;;;;;;-2.30;76.69;98310.67;108017;1277;22557;-80
2022/04/03 06:04:08;;;;;;;12.70;5.60;;;;;;;-2.27;76.38;98311.64;108031;1278;22553;-77
2022/04/03 06:06:35;;;;;;;11.00;5.80;;;;;;;-2.21;76.20;98312.04;108022;1278;22537;-77
2022/04/03 06:09:02;;;;;;;12.00;5.60;;;;;;;-2.17;76.08;98314.36;108010;1277;22581;-76
2022/04/03 06:11:29;;;;;;;12.30;5.60;;;;;;;-2.14;75.84;98316.67;107996;1278;22550;-90
2022/04/03 06:13:56;;;;;;;10.60;4.70;;;;;;;-2.07;75.60;98320.46;107970;1278;23029;-80
2022/04/03 06:16:23;;;;;;;16.40;6.20;;;;;;;-2.03;75.20;98325.52;107942;1278;22534;-80
2022/04/03 06:18:52;;;;;;;12.70;5.80;;;;;;;-2.06;75.23;98327.96;108001;1278;22552;-80
2022/04/03 06:21:20;;;;;;;19.90;8.00;;;;;;;-2.05;75.21;98328.60;108000;1278;22541;-81
2022/04/03 06:23:47;;;;;;;13.70;6.30;;;;;;;-1.95;75.40;98333.55;108061;1278;22557;-80
2022/04/03 06:26:14;;;;;;;13.90;6.30;;;;;;;-1.87;75.82;98333.72;108007;1278;22554;-84
2022/04/03 06:28:41;;;;;;;12.00;5.40;;;;;;;-1.83;75.92;98337.05;108026;1278;22565;-78
2022/04/03 06:31:08;;;;;;;15.00;6.00;;;;;;;-1.83;75.88;98339.80;108023;1278;22568;-84
2022/04/03 06:33:36;;;;;;;9.40;5.20;;;;;;;-1.83;75.56;98340.48;107951;1279;22544;-82
2022/04/03 06:36:03;;;;;;;15.50;6.80;;;;;;;-1.83;75.19;98341.50;108043;1278;22583;-89
2022/04/03 06:38:30;;;;;;;26.70;9.60;;;;;;;-1.83;75.23;98343.38;108010;1278;22566;-86
2022/04/03 06:40:59;;;;;;;12.50;5.80;;;;;;;-1.75;74.89;98343.89;108010;1278;22633;-84
2022/04/03 06:43:28;;;;;;;9.10;5.00;;;;;;;-1.70;74.27;98342.43;108023;1277;22698;-86
2022/04/03 06:45:57;;;;;;;24.40;10.80;;;;;;;-1.74;74.22;98349.50;107965;1278;23350;-88
2022/04/03 06:48:26;;;;;;;27.10;11.30;;;;;;;-1.69;74.50;98350.09;108058;1277;22558;-89
2022/04/03 06:50:53;;;;;;;26.60;11.30;;;;;;;-1.65;74.48;98353.92;107987;1278;23676;-86
2022/04/03 06:53:20;;;;;;;19.30;9.30;;;;;;;-1.57;74.23;98349.15;108039;1278;23882;-87
2022/04/03 06:55:47;;;;;;;12.50;6.70;;;;;;;-1.51;74.02;98350.89;107978;1277;22541;-88
2022/04/03 06:58:14;;;;;;;17.50;8.10;;;;;;;-1.43;73.88;98360.30;107975;1278;22594;-81
2022/04/03 07:00:41;;;;;;;17.00;8.30;;;;;;;-1.38;73.66;98364.96;108003;1279;22556;-88
2022/04/03 07:03:08;;;;;;;21.60;8.80;;;;;;;-1.30;73.85;98369.75;108034;1278;22562;-77
2022/04/03 07:05:35;;;;;;;20.10;9.10;;;;;;;-1.29;73.79;98372.11;108028;1278;22557;-86
2022/04/03 07:08:02;;;;;;;14.50;6.70;;;;;;;-1.19;73.79;98376.51;108005;1278;25317;-81
2022/04/03 07:10:29;;;;;;;12.30;6.40;;;;;;;-1.12;73.34;98376.19;107974;1278;22626;-78
2022/04/03 07:12:59;;;;;;;18.40;8.50;;;;;;;-1.12;73.17;98379.42;107990;1277;22536;-83
2022/04/03 07:15:26;;;;;;;15.90;7.60;;;;;;;-1.06;72.69;98383.05;107967;1279;22560;-83
2022/04/03 07:17:53;;;;;;;13.50;6.40;;;;;;;-1.00;72.59;98387.18;107953;1277;22478;-82
2022/04/03 07:20:20;;;;;;;14.50;7.60;;;;;;;-1.03;72.69;98390.66;108006;1278;22574;-84
2022/04/03 07:22:48;;;;;;;17.10;8.10;;;;;;;-0.94;72.63;98393.04;107962;1277;22569;-86
2022/04/03 07:25:15;;;;;;;15.80;8.60;;;;;;;-0.86;72.33;98398.48;107949;1277;22538;-83
2022/04/03 07:27:42;;;;;;;14.50;7.10;;;;;;;-0.76;72.27;98399.96;108045;1279;22702;-86
2022/04/03 07:30:12;;;;;;;12.00;7.00;;;;;;;-0.71;72.21;98403.92;107963;1279;22562;-82
2022/04/03 07:32:39;;;;;;;14.10;6.40;;;;;;;-0.65;72.70;98403.81;107985;1276;22570;-79
2022/04/03 07:35:07;;;;;;;14.20;7.30;;;;;;;-0.58;72.56;98412.88;107999;1277;22552;-81
2022/04/03 07:37:35;;;;;;;11.10;5.30;;;;;;;-0.50;72.10;98414.56;107986;1278;22534;-79
2022/04/03 07:40:08;;;;;;;13.10;7.20;;;;;;;-0.47;71.65;98415.35;108008;1278;23320;-80
2022/04/03 07:42:36;;;;;;;;;;;;;;;-0.49;71.45;98418.82;108298;1278;25673;-82
2022/04/03 07:45:04;;;;;;;10.90;5.30;;;;;;;-0.43;71.66;98416.45;108047;1277;22556;-80
2022/04/03 07:47:32;;;;;;;14.60;6.60;;;;;;;-0.35;71.23;98418.14;108017;1278;22577;-80
2022/04/03 07:49:59;;;;;;;15.20;7.90;;;;;;;-0.33;71.11;98419.27;107980;1278;22570;-78
2022/04/03 07:52:26;;;;;;;16.40;7.50;;;;;;;-0.27;71.17;98424.08;108083;1277;22543;-78
2022/04/03 07:54:53;;;;;;;13.10;6.40;;;;;;;-0.18;70.94;98426.09;107997;1277;26217;-79
2022/04/03 07:57:20;;;;;;;11.50;5.90;;;;;;;-0.12;70.94;98431.91;107954;1278;23278;-81
2022/04/03 07:59:47;;;;;;;10.50;5.60;;;;;;;-0.04;70.75;98430.70;108001;1278;22696;-81
2022/04/03 08:02:14;;;;;;;11.10;5.40;;;;;;;0.00;70.20;98436.75;108008;1277;24247;-80
2022/04/03 08:04:41;;;;;;;11.40;5.70;;;;;;;-0.04;69.73;98437.71;108042;1278;22566;-81
2022/04/03 08:07:08;;;;;;;9.60;5.10;;;;;;;-0.09;69.72;98439.52;107986;1278;24326;-82
2022/04/03 08:09:35;;;;;;;12.00;5.30;;;;;;;-0.09;69.44;98442.12;107991;1277;22546;-82
2022/04/03 08:12:03;;;;;;;11.20;6.00;;;;;;;-0.06;69.94;98446.30;107971;1277;23314;-81
2022/04/03 08:14:30;;;;;;;13.30;6.40;;;;;;;-0.02;70.30;98448.44;108071;1278;22564;-82
2022/04/03 08:16:57;;;;;;;15.00;6.00;;;;;;;0.04;70.88;98451.20;108028;1278;22542;-82
2022/04/03 08:19:24;;;;;;;12.20;6.10;;;;;;;0.12;70.69;98450.81;107965;1277;22493;-81
2022/04/03 08:21:51;;;;;;;13.20;7.30;;;;;;;0.20;70.34;98452.14;108003;1279;22607;-82
2022/04/03 08:24:18;;;;;;;11.10;6.00;;;;;;;0.28;70.03;98456.54;107981;1278;22543;-81
2022/04/03 08:26:45;;;;;;;14.20;6.50;;;;;;;0.29;69.63;98454.98;108040;1277;26135;-81
2022/04/03 08:29:12;;;;;;;9.80;5.20;;;;;;;0.32;69.41;98459.52;108019;1277;22544;-84
2022/04/03 08:31:39;;;;;;;13.10;5.70;;;;;;;0.37;68.97;98462.80;107955;1277;22565;-81
2022/04/03 08:34:06;;;;;;;11.80;5.40;;;;;;;0.34;69.04;98470.77;107969;1278;22558;-80
2022/04/03 08:36:35;;;;;;;12.00;5.90;;;;;;;0.32;68.49;98467.92;107968;1278;24326;-81
2022/04/03 08:39:02;;;;;;;20.30;8.80;;;;;;;0.32;68.03;98467.74;108012;1279;22547;-81
2022/04/03 08:41:30;;;;;;;12.40;6.10;;;;;;;0.43;68.44;98470.88;108032;1278;22555;-82
2022/04/03 08:43:57;;;;;;;12.60;6.00;;;;;;;0.49;68.24;98475.67;108039;1278;22560;-82
2022/04/03 08:46:26;;;;;;;18.70;8.00;;;;;;;0.48;67.52;98478.29;107976;1278;23008;-81
2022/04/03 08:48:56;;;;;;;17.90;7.80;;;;;;;0.56;67.58;98478.23;108024;1277;22567;-83
2022/04/03 08:51:25;;;;;;;19.50;9.30;;;;;;;0.61;67.08;98481.87;108042;1278;22561;-82
2022/04/03 08:53:53;;;;;;;14.20;7.70;;;;;;;0.71;66.88;98482.61;107989;1278;22556;-83
2022/04/03 08:56:20;;;;;;;19.80;9.60;;;;;;;0.80;66.38;98485.12;108402;1277;24262;-81
2022/04/03 08:58:47;;;;;;;22.50;11.60;;;;;;;0.84;66.31;98485.66;107999;1277;25428;-82
2022/04/03 09:01:17;;;;;;;11.70;7.10;;;;;;;0.86;66.03;98489.90;108009;1277;23145;-81
2022/04/03 09:03:44;;;;;;;11.30;5.70;;;;;;;0.89;65.91;98494.80;108075;1278;22743;-81
2022/04/03 09:06:17;;;;;;;11.20;5.90;;;;;;;0.92;65.44;98495.02;108065;1277;23552;-78
2022/04/03 09:08:45;;;;;;;13.40;6.60;;;;;;;0.93;65.32;98498.44;108055;1278;24324;-82
2022/04/03 09:11:13;;;;;;;11.40;5.90;;;;;;;0.97;65.44;98501.60;108040;1277;22617;-82
2022/04/03 09:13:42;;;;;;;13.00;5.70;;;;;;;1.01;65.35;98503.52;108039;1278;22544;-82
2022/04/03 09:16:10;;;;;;;9.60;5.10;;;;;;;1.03;65.14;98506.05;108030;1277;22655;-83
2022/04/03 09:18:52;;;;;;;10.80;4.80;;;;;;;1.03;65.14;98506.38;108261;1277;22561;-83
2022/04/03 09:21:25;;;;;;;11.40;5.50;;;;;;;1.02;64.79;98510.69;108003;1277;22535;-88
2022/04/03 09:24:03;;;;;;;13.00;6.50;;;;;;;1.03;64.20;98511.04;108013;1277;23931;-82
2022/04/03 09:26:32;;;;;;;9.80;4.30;;;;;;;1.08;64.48;98509.66;108058;1278;25314;-81
2022/04/03 09:29:09;;;;;;;11.10;4.30;;;;;;;1.17;64.00;98511.83;108091;1277;22534;-85
2022/04/03 09:31:37;;;;;;;14.60;7.30;;;;;;;1.05;63.02;98522.63;108041;1277;22576;-79
2022/04/03 09:34:13;;;;;;;14.50;8.00;;;;;;;0.98;63.40;98520.77;107995;1277;23001;-82
2022/04/03 09:36:40;;;;;;;18.70;8.80;;;;;;;1.07;63.16;98519.13;108017;1277;22561;-80
2022/04/03 09:39:19;;;;;;;16.70;6.80;;;;;;;1.16;62.55;98522.14;108020;1278;22687;-82
2022/04/03 09:41:56;;;;;;;13.50;5.90;;;;;;;1.18;63.09;98522.42;108013;1277;22546;-81
2022/04/03 09:44:44;;;;;;;11.00;5.10;;;;;;;1.13;63.38;98522.23;107998;1277;22676;-74
2022/04/03 09:47:14;;;;;;;13.30;7.20;;;;;;;1.14;63.18;98529.06;108062;1278;22550;-77
2022/04/03 09:49:44;;;;;;;13.40;6.80;;;;;;;1.12;62.44;98529.80;108035;1277;22556;-75
2022/04/03 09:52:11;;;;;;;14.70;7.40;;;;;;;1.14;61.94;98529.56;108052;1277;22645;-73
2022/04/03 09:54:40;;;;;;;16.60;9.00;;;;;;;1.17;60.79;98533.44;108068;1278;25412;-80
2022/04/03 09:57:20;;;;;;;17.60;9.30;;;;;;;1.18;61.25;98533.23;108007;1277;24276;-81
2022/04/03 09:59:53;;;;;;;16.20;7.40;;;;;;;1.21;61.57;98538.63;107979;1277;22573;-80
2022/04/03 10:02:23;;;;;;;11.00;5.40;;;;;;;1.19;61.50;98539.38;107970;1278;22646;-81
2022/04/03 10:04:51;;;;;;;9.50;5.20;;;;;;;1.18;61.92;98539.05;108081;1277;22621;-81
2022/04/03 10:07:20;;;;;;;15.50;6.10;;;;;;;1.25;61.95;98539.88;108023;1277;22544;-79
2022/04/03 10:09:49;;;;;;;9.70;4.30;;;;;;;1.28;62.00;98545.62;108022;1277;22698;-84
2022/04/03 10:12:21;;;;;;;11.50;5.20;;;;;;;1.26;60.64;98548.61;108042;1277;25524;-79
2022/04/03 10:14:51;;;;;;;13.80;6.00;;;;;;;1.15;60.20;98549.77;108259;1277;22554;-77
2022/04/03 10:17:20;;;;;;;14.00;6.80;;;;;;;1.14;60.11;98547.93;108067;1277;22540;-79
2022/04/03 10:19:48;;;;;;;11.40;5.90;;;;;;;1.20;60.60;98545.52;107947;1278;22561;-80
2022/04/03 10:22:22;;;;;;;16.80;9.20;;;;;;;1.29;60.23;98546.13;107998;1277;25368;-80
2022/04/03 10:24:54;;;;;;;22.10;10.50;;;;;;;1.34;60.11;98548.20;108019;1277;22570;-79
2022/04/03 10:27:28;;;;;;;20.60;10.00;;;;;;;1.32;59.74;98554.46;108049;1275;22551;-82
2022/04/03 10:29:58;;;;;;;13.70;8.00;;;;;;;1.26;59.35;98555.47;108021;1277;22561;-83
2022/04/03 10:32:33;;;;;;;14.80;8.10;;;;;;;1.18;59.31;98551.40;108053;1277;22548;-85
2022/04/03 10:35:09;;;;;;;15.40;7.20;;;;;;;1.16;59.11;98554.40;108014;1277;22649;-84
2022/04/03 10:37:43;;;;;;;29.40;12.40;;;;;;;1.14;59.52;98554.11;108031;1278;22556;-83
2022/04/03 10:40:16;;;;;;;27.10;12.40;;;;;;;1.14;60.12;98554.10;108041;1277;22549;-83
2022/04/03 10:43:09;;;;;;;12.60;6.00;;;;;;;1.18;59.73;98555.17;108064;1277;22551;-81
2022/04/03 10:45:46;;;;;;;12.10;5.40;;;;;;;1.16;59.89;98550.96;107977;1277;22486;-82
2022/04/03 10:48:19;;;;;;;11.10;6.20;;;;;;;1.20;59.94;98551.17;107966;1277;25253;-81
2022/04/03 10:51:05;;;;;;;12.30;5.70;;;;;;;1.26;60.28;98549.61;108054;1277;22718;-83
2022/04/03 10:53:47;;;;;;;9.30;5.20;;;;;;;1.34;60.63;98551.63;108124;1277;22629;-78
2022/04/03 10:56:26;;;;;;;12.40;6.00;;;;;;;1.37;60.65;98550.67;108093;1277;22546;-78
2022/04/03 10:58:56;;;;;;;13.40;5.70;;;;;;;1.39;60.27;98555.94;108149;1277;22549;-79
2022/04/03 11:01:32;;;;;;;15.70;7.50;;;;;;;1.36;59.87;98562.38;108336;1277;24100;-83
2022/04/03 11:04:02;;;;;;;15.70;8.20;;;;;;;1.31;59.62;98561.70;108321;1277;22537;-84
2022/04/03 11:06:32;;;;;;;11.40;5.50;;;;;;;1.33;60.02;98561.63;108340;1277;24237;-83
2022/04/03 11:09:06;;;;;;;9.60;4.60;;;;;;;1.31;59.98;98562.87;108335;1277;22545;-75
2022/04/03 11:11:39;;;;;;;12.60;6.50;;;;;;;1.30;59.76;98566.16;108345;1277;22584;-75
2022/04/03 11:14:12;;;;;;;16.00;7.20;;;;;;;1.24;59.26;98566.68;108332;1277;22563;-74
2022/04/03 11:16:56;;;;;;;12.10;6.00;;;;;;;1.30;59.20;98567.70;108228;1277;22530;-74
2022/04/03 11:19:34;;;;;;;15.90;7.70;;;;;;;1.37;58.01;98566.11;108377;1277;22550;-75
2022/04/03 11:22:03;;;;;;;11.40;6.30;;;;;;;1.42;58.74;98569.08;108399;1277;22592;-75
2022/04/03 11:24:34;;;;;;;16.00;7.60;;;;;;;1.40;58.14;98574.11;108382;1277;22558;-74
2022/04/03 11:27:03;;;;;;;15.10;8.10;;;;;;;1.27;57.80;98572.77;108344;1277;22584;-75